This is the latest recevied weather packets stored in our database for station/object EW2310. If no packets are shown the sender has not sent any weather packets the latest 10 day(s).
| Time | Temp. | Humidity | Pressure | Rain* | Wind** | Luminosity | Snow |
|---|---|---|---|---|---|---|---|
| 1777572942 | 17.22° C | 78% | 1016.1 hPa | 0 mm | - | 0 W/m² | - |
| 1777571742 | 17.78° C | 76% | 1015.7 hPa | 0 mm | - | 9 W/m² | - |
| 1777570242 | 18.33° C | 73% | 1015.5 hPa | 0 mm | - | 26 W/m² | - |
| 1777568442 | 18.89° C | 70% | 1015.4 hPa | 0 mm | - | 118 W/m² | - |
| 1777568142 | 18.89° C | 70% | 1015.3 hPa | 0 mm | - | 123 W/m² | - |
| 1777566642 | 19.44° C | 69% | 1015.2 hPa | 0 mm | - | 211 W/m² | - |
| 1777566342 | 18.89° C | 69% | 1015.3 hPa | 0 mm | - | 227 W/m² | - |
| 1777565442 | 18.89° C | 69% | 1015.2 hPa | 0 mm | - | 278 W/m² | - |
| 1777564842 | 19.44° C | 68% | 1015.2 hPa | 0 mm | - | 309 W/m² | - |
| 1777563342 | 19.44° C | 67% | 1015.1 hPa | 0 mm | - | 383 W/m² | - |
| 1777562742 | 20° C | 67% | 1015 hPa | 0 mm | - | 418 W/m² | - |
| 1777562142 | 20° C | 65% | 1015.1 hPa | 0 mm | - | 446 W/m² | - |
| 1777559142 | 20.56° C | 67% | 1015.1 hPa | 0 mm | - | 587 W/m² | - |
| 1777558842 | 20.56° C | 65% | 1015.1 hPa | 0 mm | - | 598 W/m² | - |
| 1777558245 | 20.56° C | 64% | 1015.2 hPa | 0 mm | - | 636 W/m² | - |
| 1777557342 | 20.56° C | 64% | 1015.3 hPa | 0 mm | - | 540 W/m² | - |
| 1777557042 | 20.56° C | 64% | 1015.3 hPa | 0 mm | - | 851 W/m² | - |
| 1777555842 | 20.56° C | 67% | 1015.4 hPa | 0 mm | - | 751 W/m² | - |
| 1777552242 | 20° C | 67% | 1015.4 hPa | 0 mm | - | 838 W/m² | - |
| 1777551045 | 20° C | 69% | 1015.6 hPa | 0 mm | - | 786 W/m² | - |
| 1777550742 | 20° C | 69% | 1015.7 hPa | 0 mm | - | 698 W/m² | - |
| 1777550445 | 20° C | 68% | 1015.7 hPa | 0 mm | - | 867 W/m² | - |
| 1777548942 | 20° C | 64% | 1015.7 hPa | 0 mm | - | 613 W/m² | - |
| 1777545642 | 19.44° C | 65% | 1015.8 hPa | 0 mm | - | 671 W/m² | - |
| 1777545345 | 19.44° C | 66% | 1015.7 hPa | 0 mm | - | 494 W/m² | - |
* Rain latest hour (hover to see other rain measurements)
** Current wind speed in m/s (hover to see current wind gust speed)